sensor_id;sensor_type;location;lat;lon;timestamp;P1;durP1;ratioP1;P2;durP2;ratioP2
74793;SDS011;63320;50.768;6.724;2023-01-30T00:02:12;11.07;;;5.55;;
74793;SDS011;63320;50.768;6.724;2023-01-30T00:04:37;10.95;;;5.40;;
74793;SDS011;63320;50.768;6.724;2023-01-30T00:07:03;11.50;;;6.18;;
74793;SDS011;63320;50.768;6.724;2023-01-30T00:09:28;11.07;;;5.65;;
74793;SDS011;63320;50.768;6.724;2023-01-30T00:11:55;11.85;;;6.00;;
74793;SDS011;63320;50.768;6.724;2023-01-30T00:14:20;10.38;;;5.25;;
74793;SDS011;63320;50.768;6.724;2023-01-30T00:16:46;10.65;;;5.43;;
74793;SDS011;63320;50.768;6.724;2023-01-30T00:19:11;10.88;;;5.75;;
74793;SDS011;63320;50.768;6.724;2023-01-30T00:21:36;12.57;;;6.03;;
74793;SDS011;63320;50.768;6.724;2023-01-30T00:24:02;11.48;;;5.72;;
74793;SDS011;63320;50.768;6.724;2023-01-30T00:26:27;13.25;;;5.88;;
74793;SDS011;63320;50.768;6.724;2023-01-30T00:28:54;11.70;;;6.07;;
74793;SDS011;63320;50.768;6.724;2023-01-30T00:31:19;10.90;;;6.10;;
74793;SDS011;63320;50.768;6.724;2023-01-30T00:33:45;11.68;;;5.18;;
74793;SDS011;63320;50.768;6.724;2023-01-30T00:36:10;12.60;;;5.65;;
74793;SDS011;63320;50.768;6.724;2023-01-30T00:38:35;13.15;;;5.90;;
74793;SDS011;63320;50.768;6.724;2023-01-30T00:41:01;12.27;;;5.82;;
74793;SDS011;63320;50.768;6.724;2023-01-30T00:43:26;12.32;;;6.25;;
74793;SDS011;63320;50.768;6.724;2023-01-30T00:45:53;14.18;;;6.53;;
74793;SDS011;63320;50.768;6.724;2023-01-30T00:48:19;12.30;;;6.28;;
74793;SDS011;63320;50.768;6.724;2023-01-30T00:50:44;12.15;;;6.25;;
74793;SDS011;63320;50.768;6.724;2023-01-30T00:53:10;11.20;;;6.15;;
74793;SDS011;63320;50.768;6.724;2023-01-30T00:55:36;11.27;;;5.65;;
74793;SDS011;63320;50.768;6.724;2023-01-30T00:58:02;12.13;;;6.50;;
74793;SDS011;63320;50.768;6.724;2023-01-30T01:00:27;11.52;;;5.80;;
74793;SDS011;63320;50.768;6.724;2023-01-30T01:02:54;13.23;;;6.82;;
74793;SDS011;63320;50.768;6.724;2023-01-30T01:05:19;13.80;;;5.75;;
74793;SDS011;63320;50.768;6.724;2023-01-30T01:07:45;13.20;;;6.35;;
74793;SDS011;63320;50.768;6.724;2023-01-30T01:10:10;12.80;;;6.50;;
74793;SDS011;63320;50.768;6.724;2023-01-30T01:12:35;10.85;;;5.82;;
74793;SDS011;63320;50.768;6.724;2023-01-30T01:15:01;13.18;;;6.70;;
74793;SDS011;63320;50.768;6.724;2023-01-30T01:17:26;13.32;;;6.32;;
74793;SDS011;63320;50.768;6.724;2023-01-30T01:19:53;11.25;;;5.50;;
74793;SDS011;63320;50.768;6.724;2023-01-30T01:22:18;13.68;;;5.82;;
74793;SDS011;63320;50.768;6.724;2023-01-30T01:24:43;13.02;;;5.75;;
74793;SDS011;63320;50.768;6.724;2023-01-30T01:27:09;11.20;;;5.35;;
74793;SDS011;63320;50.768;6.724;2023-01-30T01:29:34;11.48;;;6.28;;
74793;SDS011;63320;50.768;6.724;2023-01-30T01:31:59;11.27;;;6.18;;
74793;SDS011;63320;50.768;6.724;2023-01-30T01:34:25;10.88;;;5.50;;
74793;SDS011;63320;50.768;6.724;2023-01-30T01:36:52;12.90;;;6.15;;
74793;SDS011;63320;50.768;6.724;2023-01-30T01:39:17;11.07;;;5.97;;
74793;SDS011;63320;50.768;6.724;2023-01-30T01:41:42;13.88;;;7.10;;
74793;SDS011;63320;50.768;6.724;2023-01-30T01:44:08;10.52;;;5.57;;
74793;SDS011;63320;50.768;6.724;2023-01-30T01:46:35;13.00;;;7.05;;
74793;SDS011;63320;50.768;6.724;2023-01-30T01:49:04;12.10;;;6.38;;
74793;SDS011;63320;50.768;6.724;2023-01-30T01:51:32;12.75;;;6.35;;
74793;SDS011;63320;50.768;6.724;2023-01-30T01:54:02;15.65;;;7.30;;
74793;SDS011;63320;50.768;6.724;2023-01-30T01:56:32;11.50;;;6.50;;
74793;SDS011;63320;50.768;6.724;2023-01-30T01:59:00;13.27;;;7.18;;
74793;SDS011;63320;50.768;6.724;2023-01-30T02:01:30;11.50;;;6.25;;
74793;SDS011;63320;50.768;6.724;2023-01-30T02:03:57;12.18;;;6.30;;
74793;SDS011;63320;50.768;6.724;2023-01-30T02:06:27;13.90;;;6.90;;
74793;SDS011;63320;50.768;6.724;2023-01-30T02:08:54;12.38;;;6.68;;
74793;SDS011;63320;50.768;6.724;2023-01-30T02:11:25;13.32;;;6.45;;
74793;SDS011;63320;50.768;6.724;2023-01-30T02:13:54;12.18;;;6.47;;
74793;SDS011;63320;50.768;6.724;2023-01-30T02:16:21;14.30;;;6.90;;
74793;SDS011;63320;50.768;6.724;2023-01-30T02:18:47;12.63;;;6.25;;
74793;SDS011;63320;50.768;6.724;2023-01-30T02:21:25;12.10;;;6.28;;
74793;SDS011;63320;50.768;6.724;2023-01-30T02:24:19;13.27;;;6.82;;
74793;SDS011;63320;50.768;6.724;2023-01-30T02:27:02;11.95;;;6.10;;
74793;SDS011;63320;50.768;6.724;2023-01-30T02:29:45;14.38;;;7.35;;
74793;SDS011;63320;50.768;6.724;2023-01-30T02:32:31;15.27;;;7.07;;
74793;SDS011;63320;50.768;6.724;2023-01-30T02:35:03;16.02;;;7.22;;
74793;SDS011;63320;50.768;6.724;2023-01-30T02:37:42;12.82;;;6.38;;
74793;SDS011;63320;50.768;6.724;2023-01-30T02:40:24;13.93;;;6.80;;
74793;SDS011;63320;50.768;6.724;2023-01-30T02:43:02;11.88;;;6.35;;
74793;SDS011;63320;50.768;6.724;2023-01-30T02:45:38;12.20;;;5.93;;
74793;SDS011;63320;50.768;6.724;2023-01-30T02:48:10;12.82;;;6.40;;
74793;SDS011;63320;50.768;6.724;2023-01-30T02:50:40;10.40;;;5.30;;
74793;SDS011;63320;50.768;6.724;2023-01-30T02:53:09;11.98;;;5.35;;
74793;SDS011;63320;50.768;6.724;2023-01-30T02:55:38;13.98;;;6.07;;
74793;SDS011;63320;50.768;6.724;2023-01-30T02:58:04;11.10;;;6.20;;
74793;SDS011;63320;50.768;6.724;2023-01-30T03:00:32;12.95;;;5.78;;
74793;SDS011;63320;50.768;6.724;2023-01-30T03:03:23;11.18;;;5.65;;
74793;SDS011;63320;50.768;6.724;2023-01-30T03:06:01;10.98;;;5.57;;
74793;SDS011;63320;50.768;6.724;2023-01-30T03:11:13;12.02;;;6.22;;
74793;SDS011;63320;50.768;6.724;2023-01-30T03:13:41;12.80;;;6.15;;
74793;SDS011;63320;50.768;6.724;2023-01-30T03:16:14;12.73;;;6.03;;
74793;SDS011;63320;50.768;6.724;2023-01-30T03:18:44;12.88;;;6.63;;
74793;SDS011;63320;50.768;6.724;2023-01-30T03:21:11;13.40;;;6.75;;
74793;SDS011;63320;50.768;6.724;2023-01-30T03:23:36;14.57;;;6.72;;
74793;SDS011;63320;50.768;6.724;2023-01-30T03:26:02;14.90;;;7.53;;
74793;SDS011;63320;50.768;6.724;2023-01-30T03:28:30;13.00;;;6.53;;
74793;SDS011;63320;50.768;6.724;2023-01-30T03:30:56;12.20;;;5.88;;
74793;SDS011;63320;50.768;6.724;2023-01-30T03:33:22;14.30;;;6.68;;
74793;SDS011;63320;50.768;6.724;2023-01-30T03:35:49;12.68;;;6.53;;
74793;SDS011;63320;50.768;6.724;2023-01-30T03:38:16;9.88;;;5.45;;
74793;SDS011;63320;50.768;6.724;2023-01-30T03:40:41;11.90;;;5.57;;
74793;SDS011;63320;50.768;6.724;2023-01-30T03:43:07;9.98;;;5.32;;
74793;SDS011;63320;50.768;6.724;2023-01-30T03:45:32;9.32;;;4.65;;
74793;SDS011;63320;50.768;6.724;2023-01-30T03:47:57;11.65;;;5.90;;
74793;SDS011;63320;50.768;6.724;2023-01-30T03:50:23;9.48;;;4.63;;
74793;SDS011;63320;50.768;6.724;2023-01-30T03:52:49;8.32;;;4.82;;
74793;SDS011;63320;50.768;6.724;2023-01-30T03:55:15;10.25;;;4.50;;
74793;SDS011;63320;50.768;6.724;2023-01-30T03:57:40;9.27;;;4.90;;
74793;SDS011;63320;50.768;6.724;2023-01-30T04:00:06;11.07;;;4.90;;
74793;SDS011;63320;50.768;6.724;2023-01-30T04:02:32;8.23;;;4.13;;
74793;SDS011;63320;50.768;6.724;2023-01-30T04:04:57;10.95;;;5.22;;
74793;SDS011;63320;50.768;6.724;2023-01-30T04:07:23;9.52;;;4.80;;
74793;SDS011;63320;50.768;6.724;2023-01-30T04:09:50;8.95;;;4.25;;
74793;SDS011;63320;50.768;6.724;2023-01-30T04:12:15;9.05;;;4.30;;
74793;SDS011;63320;50.768;6.724;2023-01-30T04:14:40;9.63;;;4.65;;
74793;SDS011;63320;50.768;6.724;2023-01-30T04:17:06;7.88;;;4.00;;
74793;SDS011;63320;50.768;6.724;2023-01-30T04:19:31;9.32;;;5.05;;
74793;SDS011;63320;50.768;6.724;2023-01-30T04:21:57;10.63;;;5.25;;
74793;SDS011;63320;50.768;6.724;2023-01-30T04:24:22;10.25;;;5.43;;
74793;SDS011;63320;50.768;6.724;2023-01-30T04:26:49;8.70;;;5.25;;
74793;SDS011;63320;50.768;6.724;2023-01-30T04:29:14;10.88;;;4.90;;
74793;SDS011;63320;50.768;6.724;2023-01-30T04:31:39;10.77;;;4.68;;
74793;SDS011;63320;50.768;6.724;2023-01-30T04:34:05;11.65;;;4.70;;
74793;SDS011;63320;50.768;6.724;2023-01-30T04:36:30;11.63;;;6.03;;
74793;SDS011;63320;50.768;6.724;2023-01-30T04:38:55;11.18;;;5.80;;
74793;SDS011;63320;50.768;6.724;2023-01-30T04:41:21;11.50;;;5.97;;
74793;SDS011;63320;50.768;6.724;2023-01-30T04:43:47;12.10;;;5.80;;
74793;SDS011;63320;50.768;6.724;2023-01-30T04:46:13;12.00;;;6.82;;
74793;SDS011;63320;50.768;6.724;2023-01-30T04:48:38;11.90;;;6.03;;
74793;SDS011;63320;50.768;6.724;2023-01-30T04:51:04;13.02;;;6.03;;
74793;SDS011;63320;50.768;6.724;2023-01-30T04:53:29;12.05;;;5.78;;
74793;SDS011;63320;50.768;6.724;2023-01-30T04:55:55;11.57;;;6.43;;
74793;SDS011;63320;50.768;6.724;2023-01-30T04:58:20;14.02;;;6.97;;
74793;SDS011;63320;50.768;6.724;2023-01-30T05:00:47;13.55;;;7.22;;
74793;SDS011;63320;50.768;6.724;2023-01-30T05:03:12;14.70;;;7.47;;
74793;SDS011;63320;50.768;6.724;2023-01-30T05:05:38;15.07;;;7.10;;
74793;SDS011;63320;50.768;6.724;2023-01-30T05:08:03;14.48;;;7.57;;
74793;SDS011;63320;50.768;6.724;2023-01-30T05:10:29;12.50;;;6.32;;
74793;SDS011;63320;50.768;6.724;2023-01-30T05:12:54;13.07;;;7.43;;
74793;SDS011;63320;50.768;6.724;2023-01-30T05:15:20;12.85;;;6.50;;
74793;SDS011;63320;50.768;6.724;2023-01-30T05:17:46;13.95;;;7.07;;
74793;SDS011;63320;50.768;6.724;2023-01-30T05:20:12;14.98;;;8.15;;
74793;SDS011;63320;50.768;6.724;2023-01-30T05:22:38;15.15;;;6.28;;
74793;SDS011;63320;50.768;6.724;2023-01-30T05:25:04;13.18;;;6.75;;
74793;SDS011;63320;50.768;6.724;2023-01-30T05:27:30;16.30;;;7.35;;
74793;SDS011;63320;50.768;6.724;2023-01-30T05:29:55;16.35;;;7.97;;
74793;SDS011;63320;50.768;6.724;2023-01-30T05:32:20;15.48;;;8.07;;
74793;SDS011;63320;50.768;6.724;2023-01-30T05:34:48;14.35;;;8.30;;
74793;SDS011;63320;50.768;6.724;2023-01-30T05:37:13;14.95;;;7.50;;
74793;SDS011;63320;50.768;6.724;2023-01-30T05:39:39;10.57;;;5.90;;
74793;SDS011;63320;50.768;6.724;2023-01-30T05:42:04;17.30;;;7.38;;
74793;SDS011;63320;50.768;6.724;2023-01-30T05:44:30;10.82;;;5.40;;
74793;SDS011;63320;50.768;6.724;2023-01-30T05:46:55;10.75;;;5.25;;
74793;SDS011;63320;50.768;6.724;2023-01-30T05:49:20;13.50;;;5.47;;
74793;SDS011;63320;50.768;6.724;2023-01-30T05:51:47;10.32;;;5.13;;
74793;SDS011;63320;50.768;6.724;2023-01-30T05:54:12;9.80;;;5.38;;
74793;SDS011;63320;50.768;6.724;2023-01-30T05:56:38;9.05;;;4.63;;
74793;SDS011;63320;50.768;6.724;2023-01-30T05:59:03;7.38;;;3.30;;
74793;SDS011;63320;50.768;6.724;2023-01-30T06:01:29;7.50;;;3.80;;
74793;SDS011;63320;50.768;6.724;2023-01-30T06:03:55;8.32;;;3.63;;
74793;SDS011;63320;50.768;6.724;2023-01-30T06:06:21;7.70;;;3.83;;
74793;SDS011;63320;50.768;6.724;2023-01-30T06:08:51;7.63;;;3.40;;
74793;SDS011;63320;50.768;6.724;2023-01-30T06:11:17;6.10;;;2.70;;
74793;SDS011;63320;50.768;6.724;2023-01-30T06:13:42;5.15;;;2.65;;
74793;SDS011;63320;50.768;6.724;2023-01-30T06:16:08;5.63;;;2.53;;
74793;SDS011;63320;50.768;6.724;2023-01-30T06:18:35;5.68;;;2.30;;
74793;SDS011;63320;50.768;6.724;2023-01-30T06:21:00;5.22;;;2.67;;
74793;SDS011;63320;50.768;6.724;2023-01-30T06:23:26;5.30;;;2.30;;
74793;SDS011;63320;50.768;6.724;2023-01-30T06:25:53;5.53;;;2.65;;
74793;SDS011;63320;50.768;6.724;2023-01-30T06:28:18;3.88;;;1.63;;
74793;SDS011;63320;50.768;6.724;2023-01-30T06:30:44;4.38;;;2.33;;
74793;SDS011;63320;50.768;6.724;2023-01-30T06:33:09;3.85;;;1.85;;
74793;SDS011;63320;50.768;6.724;2023-01-30T06:35:35;4.20;;;1.75;;
74793;SDS011;63320;50.768;6.724;2023-01-30T06:38:01;4.25;;;1.65;;
74793;SDS011;63320;50.768;6.724;2023-01-30T06:40:27;3.75;;;1.67;;
74793;SDS011;63320;50.768;6.724;2023-01-30T06:42:53;3.90;;;1.73;;
74793;SDS011;63320;50.768;6.724;2023-01-30T06:45:19;5.18;;;1.75;;
74793;SDS011;63320;50.768;6.724;2023-01-30T06:47:44;4.32;;;2.00;;
74793;SDS011;63320;50.768;6.724;2023-01-30T06:50:10;4.85;;;1.90;;
74793;SDS011;63320;50.768;6.724;2023-01-30T06:52:38;4.90;;;1.90;;
74793;SDS011;63320;50.768;6.724;2023-01-30T06:55:05;3.60;;;1.58;;
74793;SDS011;63320;50.768;6.724;2023-01-30T06:57:31;3.95;;;1.60;;
74793;SDS011;63320;50.768;6.724;2023-01-30T06:59:58;4.40;;;1.98;;
74793;SDS011;63320;50.768;6.724;2023-01-30T07:02:23;8.23;;;1.90;;
74793;SDS011;63320;50.768;6.724;2023-01-30T07:04:48;3.97;;;1.55;;
74793;SDS011;63320;50.768;6.724;2023-01-30T07:07:14;4.38;;;1.55;;
74793;SDS011;63320;50.768;6.724;2023-01-30T07:09:39;4.00;;;1.65;;
74793;SDS011;63320;50.768;6.724;2023-01-30T07:12:04;4.45;;;1.60;;
74793;SDS011;63320;50.768;6.724;2023-01-30T07:14:30;4.72;;;1.77;;
74793;SDS011;63320;50.768;6.724;2023-01-30T07:16:57;3.85;;;1.45;;
74793;SDS011;63320;50.768;6.724;2023-01-30T07:19:22;3.40;;;1.50;;
74793;SDS011;63320;50.768;6.724;2023-01-30T07:21:47;4.25;;;1.85;;
74793;SDS011;63320;50.768;6.724;2023-01-30T07:24:13;2.95;;;1.20;;
74793;SDS011;63320;50.768;6.724;2023-01-30T07:26:38;3.40;;;1.50;;
74793;SDS011;63320;50.768;6.724;2023-01-30T07:29:03;3.40;;;1.38;;
74793;SDS011;63320;50.768;6.724;2023-01-30T07:31:29;3.60;;;1.17;;
74793;SDS011;63320;50.768;6.724;2023-01-30T07:33:55;3.08;;;1.20;;
74793;SDS011;63320;50.768;6.724;2023-01-30T07:36:20;3.45;;;1.42;;
74793;SDS011;63320;50.768;6.724;2023-01-30T07:38:46;3.30;;;1.40;;
74793;SDS011;63320;50.768;6.724;2023-01-30T07:41:12;3.58;;;1.70;;
74793;SDS011;63320;50.768;6.724;2023-01-30T07:43:37;4.72;;;1.80;;
74793;SDS011;63320;50.768;6.724;2023-01-30T07:46:02;4.15;;;1.70;;
74793;SDS011;63320;50.768;6.724;2023-01-30T07:48:28;5.00;;;2.15;;
74793;SDS011;63320;50.768;6.724;2023-01-30T07:50:55;5.65;;;2.60;;
74793;SDS011;63320;50.768;6.724;2023-01-30T07:53:20;5.47;;;2.45;;
74793;SDS011;63320;50.768;6.724;2023-01-30T07:55:45;7.07;;;3.17;;
74793;SDS011;63320;50.768;6.724;2023-01-30T07:58:11;6.25;;;3.17;;
74793;SDS011;63320;50.768;6.724;2023-01-30T08:00:37;6.20;;;2.92;;
74793;SDS011;63320;50.768;6.724;2023-01-30T08:03:02;7.93;;;4.10;;
74793;SDS011;63320;50.768;6.724;2023-01-30T08:05:28;6.57;;;3.45;;
74793;SDS011;63320;50.768;6.724;2023-01-30T08:07:55;6.68;;;3.63;;
74793;SDS011;63320;50.768;6.724;2023-01-30T08:10:20;8.00;;;4.25;;
74793;SDS011;63320;50.768;6.724;2023-01-30T08:12:46;8.73;;;4.57;;
74793;SDS011;63320;50.768;6.724;2023-01-30T08:15:14;8.23;;;4.57;;
74793;SDS011;63320;50.768;6.724;2023-01-30T08:17:39;7.72;;;4.32;;
74793;SDS011;63320;50.768;6.724;2023-01-30T08:20:05;9.73;;;4.75;;
74793;SDS011;63320;50.768;6.724;2023-01-30T08:22:31;10.85;;;4.50;;
74793;SDS011;63320;50.768;6.724;2023-01-30T08:24:57;9.50;;;5.65;;
74793;SDS011;63320;50.768;6.724;2023-01-30T08:27:23;13.40;;;7.22;;
74793;SDS011;63320;50.768;6.724;2023-01-30T08:29:48;10.85;;;5.82;;
74793;SDS011;63320;50.768;6.724;2023-01-30T08:32:13;9.95;;;5.65;;
74793;SDS011;63320;50.768;6.724;2023-01-30T08:34:39;9.40;;;5.28;;
74793;SDS011;63320;50.768;6.724;2023-01-30T08:37:04;10.43;;;5.57;;
74793;SDS011;63320;50.768;6.724;2023-01-30T08:39:30;10.00;;;5.65;;
74793;SDS011;63320;50.768;6.724;2023-01-30T08:41:56;13.35;;;5.28;;
74793;SDS011;63320;50.768;6.724;2023-01-30T08:44:22;11.90;;;4.72;;
74793;SDS011;63320;50.768;6.724;2023-01-30T08:46:47;12.52;;;4.85;;
74793;SDS011;63320;50.768;6.724;2023-01-30T08:49:12;12.23;;;5.22;;
74793;SDS011;63320;50.768;6.724;2023-01-30T08:51:38;10.75;;;4.63;;
74793;SDS011;63320;50.768;6.724;2023-01-30T08:54:03;13.25;;;5.38;;
74793;SDS011;63320;50.768;6.724;2023-01-30T08:56:29;14.90;;;5.53;;
74793;SDS011;63320;50.768;6.724;2023-01-30T08:58:55;16.45;;;5.30;;
74793;SDS011;63320;50.768;6.724;2023-01-30T09:01:21;13.55;;;5.97;;
74793;SDS011;63320;50.768;6.724;2023-01-30T09:03:46;12.23;;;4.93;;
74793;SDS011;63320;50.768;6.724;2023-01-30T09:06:11;15.25;;;5.53;;
74793;SDS011;63320;50.768;6.724;2023-01-30T09:08:37;18.25;;;5.93;;
74793;SDS011;63320;50.768;6.724;2023-01-30T09:11:03;13.90;;;5.57;;
74793;SDS011;63320;50.768;6.724;2023-01-30T09:13:29;19.38;;;6.82;;
74793;SDS011;63320;50.768;6.724;2023-01-30T09:15:56;14.45;;;5.40;;
74793;SDS011;63320;50.768;6.724;2023-01-30T09:18:21;20.10;;;6.15;;
74793;SDS011;63320;50.768;6.724;2023-01-30T09:20:47;11.50;;;5.38;;
74793;SDS011;63320;50.768;6.724;2023-01-30T09:23:12;14.75;;;5.57;;
74793;SDS011;63320;50.768;6.724;2023-01-30T09:25:38;16.25;;;6.38;;
74793;SDS011;63320;50.768;6.724;2023-01-30T09:28:03;11.45;;;5.55;;
74793;SDS011;63320;50.768;6.724;2023-01-30T09:30:28;12.55;;;5.80;;
74793;SDS011;63320;50.768;6.724;2023-01-30T09:32:55;13.43;;;5.63;;
74793;SDS011;63320;50.768;6.724;2023-01-30T09:35:20;15.90;;;5.63;;
74793;SDS011;63320;50.768;6.724;2023-01-30T09:37:46;12.70;;;4.68;;
74793;SDS011;63320;50.768;6.724;2023-01-30T09:40:12;14.38;;;5.18;;
74793;SDS011;63320;50.768;6.724;2023-01-30T09:42:53;14.20;;;5.50;;
74793;SDS011;63320;50.768;6.724;2023-01-30T09:48:09;11.45;;;5.50;;
74793;SDS011;63320;50.768;6.724;2023-01-30T09:50:48;13.05;;;5.68;;
74793;SDS011;63320;50.768;6.724;2023-01-30T09:55:53;14.60;;;6.60;;
74793;SDS011;63320;50.768;6.724;2023-01-30T09:58:23;13.23;;;5.97;;
74793;SDS011;63320;50.768;6.724;2023-01-30T10:00:52;12.95;;;4.93;;
74793;SDS011;63320;50.768;6.724;2023-01-30T10:03:22;10.73;;;4.30;;
74793;SDS011;63320;50.768;6.724;2023-01-30T10:05:55;13.10;;;4.38;;
74793;SDS011;63320;50.768;6.724;2023-01-30T10:08:33;15.25;;;5.13;;
74793;SDS011;63320;50.768;6.724;2023-01-30T10:11:13;10.70;;;3.67;;
74793;SDS011;63320;50.768;6.724;2023-01-30T10:13:50;12.10;;;3.50;;
74793;SDS011;63320;50.768;6.724;2023-01-30T10:16:31;16.15;;;3.60;;
74793;SDS011;63320;50.768;6.724;2023-01-30T10:21:41;13.48;;;2.47;;
74793;SDS011;63320;50.768;6.724;2023-01-30T10:24:18;11.63;;;2.67;;
74793;SDS011;63320;50.768;6.724;2023-01-30T10:26:52;11.98;;;2.67;;
74793;SDS011;63320;50.768;6.724;2023-01-30T10:29:20;10.23;;;2.55;;
74793;SDS011;63320;50.768;6.724;2023-01-30T10:31:49;13.63;;;2.10;;
74793;SDS011;63320;50.768;6.724;2023-01-30T10:34:19;14.13;;;2.40;;
74793;SDS011;63320;50.768;6.724;2023-01-30T10:36:51;9.43;;;1.90;;
74793;SDS011;63320;50.768;6.724;2023-01-30T10:39:23;10.23;;;2.10;;
74793;SDS011;63320;50.768;6.724;2023-01-30T10:41:56;9.27;;;1.95;;
74793;SDS011;63320;50.768;6.724;2023-01-30T10:44:27;10.05;;;2.55;;
74793;SDS011;63320;50.768;6.724;2023-01-30T10:46:59;18.52;;;2.95;;
74793;SDS011;63320;50.768;6.724;2023-01-30T10:49:46;12.50;;;2.25;;
74793;SDS011;63320;50.768;6.724;2023-01-30T10:52:19;12.07;;;2.17;;
74793;SDS011;63320;50.768;6.724;2023-01-30T10:54:54;9.15;;;1.85;;
74793;SDS011;63320;50.768;6.724;2023-01-30T10:57:31;12.98;;;2.63;;
74793;SDS011;63320;50.768;6.724;2023-01-30T11:00:10;15.73;;;2.20;;
74793;SDS011;63320;50.768;6.724;2023-01-30T11:02:47;9.25;;;1.75;;
74793;SDS011;63320;50.768;6.724;2023-01-30T11:05:24;9.10;;;2.30;;
74793;SDS011;63320;50.768;6.724;2023-01-30T11:07:54;13.35;;;2.22;;
74793;SDS011;63320;50.768;6.724;2023-01-30T11:10:20;12.27;;;1.92;;
74793;SDS011;63320;50.768;6.724;2023-01-30T11:12:47;11.77;;;1.83;;
74793;SDS011;63320;50.768;6.724;2023-01-30T11:15:16;12.15;;;2.13;;
74793;SDS011;63320;50.768;6.724;2023-01-30T11:17:42;10.27;;;1.63;;
74793;SDS011;63320;50.768;6.724;2023-01-30T11:20:10;9.98;;;2.25;;
74793;SDS011;63320;50.768;6.724;2023-01-30T11:22:44;12.13;;;2.03;;
74793;SDS011;63320;50.768;6.724;2023-01-30T11:25:13;11.50;;;2.50;;
74793;SDS011;63320;50.768;6.724;2023-01-30T11:27:40;14.45;;;2.20;;
74793;SDS011;63320;50.768;6.724;2023-01-30T11:30:11;10.35;;;1.63;;
74793;SDS011;63320;50.768;6.724;2023-01-30T11:32:38;12.23;;;2.10;;
74793;SDS011;63320;50.768;6.724;2023-01-30T11:35:16;10.57;;;1.83;;
74793;SDS011;63320;50.768;6.724;2023-01-30T11:37:48;12.50;;;2.30;;
74793;SDS011;63320;50.768;6.724;2023-01-30T11:40:18;12.50;;;2.33;;
74793;SDS011;63320;50.768;6.724;2023-01-30T11:42:48;11.52;;;1.80;;
74793;SDS011;63320;50.768;6.724;2023-01-30T11:45:15;8.35;;;1.90;;
74793;SDS011;63320;50.768;6.724;2023-01-30T11:47:46;11.73;;;2.13;;
74793;SDS011;63320;50.768;6.724;2023-01-30T11:50:15;14.00;;;2.42;;
74793;SDS011;63320;50.768;6.724;2023-01-30T11:52:42;12.90;;;2.15;;
74793;SDS011;63320;50.768;6.724;2023-01-30T11:55:13;14.07;;;2.30;;
74793;SDS011;63320;50.768;6.724;2023-01-30T11:57:42;12.15;;;1.90;;
74793;SDS011;63320;50.768;6.724;2023-01-30T12:00:13;12.70;;;2.00;;
74793;SDS011;63320;50.768;6.724;2023-01-30T12:02:42;10.77;;;2.20;;
74793;SDS011;63320;50.768;6.724;2023-01-30T12:05:16;16.38;;;2.10;;
74793;SDS011;63320;50.768;6.724;2023-01-30T12:07:47;11.88;;;2.22;;
74793;SDS011;63320;50.768;6.724;2023-01-30T12:10:26;14.98;;;1.98;;
74793;SDS011;63320;50.768;6.724;2023-01-30T12:12:53;13.73;;;1.80;;
74793;SDS011;63320;50.768;6.724;2023-01-30T12:15:22;13.20;;;2.15;;
74793;SDS011;63320;50.768;6.724;2023-01-30T12:17:51;15.65;;;2.03;;
74793;SDS011;63320;50.768;6.724;2023-01-30T12:20:25;12.25;;;2.05;;
74793;SDS011;63320;50.768;6.724;2023-01-30T12:23:07;12.02;;;2.03;;
74793;SDS011;63320;50.768;6.724;2023-01-30T12:25:40;14.48;;;2.00;;
74793;SDS011;63320;50.768;6.724;2023-01-30T12:28:10;12.25;;;1.75;;
74793;SDS011;63320;50.768;6.724;2023-01-30T12:30:41;10.10;;;2.28;;
74793;SDS011;63320;50.768;6.724;2023-01-30T12:33:11;15.00;;;2.40;;
74793;SDS011;63320;50.768;6.724;2023-01-30T12:35:46;14.40;;;2.35;;
74793;SDS011;63320;50.768;6.724;2023-01-30T12:38:22;17.60;;;1.98;;
74793;SDS011;63320;50.768;6.724;2023-01-30T12:40:58;12.25;;;2.15;;
74793;SDS011;63320;50.768;6.724;2023-01-30T12:43:41;12.30;;;2.08;;
74793;SDS011;63320;50.768;6.724;2023-01-30T12:46:23;11.93;;;2.70;;
74793;SDS011;63320;50.768;6.724;2023-01-30T12:49:04;9.35;;;1.65;;
74793;SDS011;63320;50.768;6.724;2023-01-30T12:51:55;13.40;;;1.80;;
74793;SDS011;63320;50.768;6.724;2023-01-30T12:54:41;16.95;;;2.10;;
74793;SDS011;63320;50.768;6.724;2023-01-30T12:57:17;13.40;;;2.47;;
74793;SDS011;63320;50.768;6.724;2023-01-30T12:59:55;16.40;;;2.00;;
74793;SDS011;63320;50.768;6.724;2023-01-30T13:02:40;17.35;;;2.35;;
74793;SDS011;63320;50.768;6.724;2023-01-30T13:05:19;11.32;;;1.40;;
74793;SDS011;63320;50.768;6.724;2023-01-30T13:07:58;11.48;;;2.05;;
74793;SDS011;63320;50.768;6.724;2023-01-30T13:10:32;10.32;;;1.83;;
74793;SDS011;63320;50.768;6.724;2023-01-30T13:13:08;12.77;;;1.80;;
74793;SDS011;63320;50.768;6.724;2023-01-30T13:15:40;15.05;;;2.80;;
74793;SDS011;63320;50.768;6.724;2023-01-30T13:18:14;12.60;;;2.22;;
74793;SDS011;63320;50.768;6.724;2023-01-30T13:20:45;11.95;;;2.38;;
74793;SDS011;63320;50.768;6.724;2023-01-30T13:23:17;16.75;;;2.47;;
74793;SDS011;63320;50.768;6.724;2023-01-30T13:25:48;13.75;;;2.10;;
74793;SDS011;63320;50.768;6.724;2023-01-30T13:28:25;14.07;;;2.33;;
74793;SDS011;63320;50.768;6.724;2023-01-30T13:30:55;11.93;;;2.13;;
74793;SDS011;63320;50.768;6.724;2023-01-30T13:33:23;17.67;;;2.08;;
74793;SDS011;63320;50.768;6.724;2023-01-30T13:35:53;13.05;;;1.73;;
74793;SDS011;63320;50.768;6.724;2023-01-30T13:38:26;17.25;;;2.42;;
74793;SDS011;63320;50.768;6.724;2023-01-30T13:40:54;15.30;;;2.83;;
74793;SDS011;63320;50.768;6.724;2023-01-30T13:43:24;15.27;;;2.67;;
74793;SDS011;63320;50.768;6.724;2023-01-30T13:45:53;13.98;;;1.80;;
74793;SDS011;63320;50.768;6.724;2023-01-30T13:48:26;12.68;;;2.67;;
74793;SDS011;63320;50.768;6.724;2023-01-30T13:51:11;11.68;;;1.73;;
74793;SDS011;63320;50.768;6.724;2023-01-30T13:53:47;12.93;;;1.70;;
74793;SDS011;63320;50.768;6.724;2023-01-30T13:56:20;16.95;;;2.45;;
74793;SDS011;63320;50.768;6.724;2023-01-30T13:58:54;18.25;;;2.05;;
74793;SDS011;63320;50.768;6.724;2023-01-30T14:01:33;12.23;;;2.30;;
74793;SDS011;63320;50.768;6.724;2023-01-30T14:04:47;17.45;;;2.40;;
74793;SDS011;63320;50.768;6.724;2023-01-30T14:07:15;12.02;;;1.63;;
74793;SDS011;63320;50.768;6.724;2023-01-30T14:09:46;15.48;;;1.42;;
74793;SDS011;63320;50.768;6.724;2023-01-30T14:12:18;16.27;;;2.00;;
74793;SDS011;63320;50.768;6.724;2023-01-30T14:14:56;8.98;;;1.98;;
74793;SDS011;63320;50.768;6.724;2023-01-30T14:17:26;15.15;;;2.10;;
74793;SDS011;63320;50.768;6.724;2023-01-30T14:19:56;13.35;;;2.00;;
74793;SDS011;63320;50.768;6.724;2023-01-30T14:22:24;12.55;;;3.00;;
74793;SDS011;63320;50.768;6.724;2023-01-30T14:31:11;13.88;;;1.85;;
74793;SDS011;63320;50.768;6.724;2023-01-30T14:33:56;11.27;;;2.13;;
74793;SDS011;63320;50.768;6.724;2023-01-30T14:36:32;13.65;;;1.75;;
74793;SDS011;63320;50.768;6.724;2023-01-30T14:42:10;17.98;;;2.28;;
74793;SDS011;63320;50.768;6.724;2023-01-30T14:45:01;13.52;;;2.33;;
74793;SDS011;63320;50.768;6.724;2023-01-30T14:47:28;13.73;;;2.15;;
74793;SDS011;63320;50.768;6.724;2023-01-30T14:49:55;14.05;;;2.00;;
74793;SDS011;63320;50.768;6.724;2023-01-30T14:52:35;12.55;;;1.98;;
74793;SDS011;63320;50.768;6.724;2023-01-30T14:55:03;16.30;;;2.22;;
74793;SDS011;63320;50.768;6.724;2023-01-30T14:57:30;20.42;;;2.80;;
74793;SDS011;63320;50.768;6.724;2023-01-30T14:59:57;10.52;;;1.63;;
74793;SDS011;63320;50.768;6.724;2023-01-30T15:02:27;18.13;;;3.03;;
74793;SDS011;63320;50.768;6.724;2023-01-30T15:05:02;16.73;;;2.25;;
74793;SDS011;63320;50.768;6.724;2023-01-30T15:07:31;18.73;;;2.65;;
74793;SDS011;63320;50.768;6.724;2023-01-30T15:10:08;15.25;;;2.13;;